createdAt,value
2018-01-27T00:00:10.143Z,35.50
2018-01-27T00:02:36.288Z,34.17
2018-01-27T00:05:02.395Z,31.33
2018-01-27T00:07:28.631Z,29.70
2018-01-27T00:09:54.806Z,28.50
2018-01-27T00:12:20.962Z,28.43
2018-01-27T00:14:47.191Z,26.27
2018-01-27T00:17:13.423Z,24.43
2018-01-27T00:19:39.568Z,22.33
2018-01-27T00:22:05.774Z,28.93
2018-01-27T00:24:31.867Z,23.40
2018-01-27T00:26:58.042Z,24.67
2018-01-27T00:29:24.208Z,24.20
2018-01-27T00:31:50.325Z,26.67
2018-01-27T00:34:16.494Z,27.83
2018-01-27T00:36:42.632Z,27.13
2018-01-27T00:39:08.790Z,28.87
2018-01-27T00:41:34.905Z,28.47
2018-01-27T00:44:01.063Z,28.17
2018-01-27T00:46:27.167Z,26.93
2018-01-27T00:48:53.415Z,25.70
2018-01-27T00:51:19.531Z,25.67
2018-01-27T00:53:45.669Z,29.87
2018-01-27T00:56:11.929Z,26.87
2018-01-27T00:58:38.086Z,26.37
2018-01-27T01:01:04.203Z,24.23
2018-01-27T01:03:30.394Z,28.67
2018-01-27T01:05:56.520Z,28.13
2018-01-27T01:08:22.723Z,25.30
2018-01-27T01:10:48.830Z,23.80
2018-01-27T01:13:14.922Z,21.80
2018-01-27T01:15:42.187Z,26.57
2018-01-27T01:18:08.359Z,24.73
2018-01-27T01:20:34.448Z,24.33
2018-01-27T01:23:00.598Z,28.03
2018-01-27T01:25:26.879Z,25.70
2018-01-27T01:27:52.968Z,26.50
2018-01-27T01:30:19.139Z,30.53
2018-01-27T01:32:45.304Z,34.63
2018-01-27T01:35:18.345Z,29.67
2018-01-27T01:37:44.491Z,32.80
2018-01-27T01:40:10.646Z,32.30
2018-01-27T01:42:42.655Z,38.27
2018-01-27T01:45:08.856Z,38.77
2018-01-27T01:47:34.974Z,33.97
2018-01-27T01:50:01.292Z,42.10
2018-01-27T01:52:27.454Z,36.93
2018-01-27T01:54:53.554Z,38.50
2018-01-27T01:57:19.795Z,36.63
2018-01-27T01:59:45.972Z,42.90
2018-01-27T02:02:12.104Z,43.30
2018-01-27T02:04:38.245Z,43.07
2018-01-27T02:07:04.343Z,37.50
2018-01-27T02:09:30.550Z,36.80
2018-01-27T02:11:56.702Z,40.50
2018-01-27T02:14:22.840Z,36.53
2018-01-27T02:16:49.065Z,38.10
2018-01-27T02:19:15.316Z,32.63
2018-01-27T02:21:41.460Z,35.00
2018-01-27T02:24:07.564Z,39.30
2018-01-27T02:26:33.741Z,35.63
2018-01-27T02:28:59.956Z,34.97
2018-01-27T02:31:26.148Z,34.47
2018-01-27T02:33:52.264Z,38.47
2018-01-27T02:36:18.393Z,34.43
2018-01-27T02:38:44.575Z,32.97
2018-01-27T02:41:10.700Z,25.37
2018-01-27T02:43:36.817Z,23.13
2018-01-27T02:46:02.953Z,18.17
2018-01-27T02:48:29.132Z,19.13
2018-01-27T02:50:55.236Z,21.17
2018-01-27T02:53:21.376Z,22.97
2018-01-27T02:55:47.571Z,25.23
2018-01-27T02:58:13.682Z,22.87
2018-01-27T03:00:39.882Z,27.47
2018-01-27T03:03:05.983Z,24.90
2018-01-27T03:05:32.129Z,21.60
2018-01-27T03:07:58.402Z,26.67
2018-01-27T03:10:24.546Z,24.83
2018-01-27T03:12:50.636Z,22.73
2018-01-27T03:15:16.746Z,26.27
2018-01-27T03:17:42.917Z,27.10
2018-01-27T03:20:09.101Z,25.73
2018-01-27T03:22:35.445Z,26.23
2018-01-27T03:25:01.691Z,28.13
2018-01-27T03:27:27.790Z,29.50
2018-01-27T03:29:53.915Z,29.33
2018-01-27T03:32:20.052Z,35.33
2018-01-27T03:34:46.198Z,31.27
2018-01-27T03:37:12.355Z,32.20
2018-01-27T03:39:38.566Z,35.50
2018-01-27T03:42:04.679Z,33.40
2018-01-27T03:44:30.793Z,33.47
2018-01-27T03:46:56.915Z,33.80
2018-01-27T03:49:23.154Z,30.97
2018-01-27T03:51:49.305Z,35.80
2018-01-27T03:54:15.408Z,35.87
2018-01-27T03:56:41.544Z,38.07
2018-01-27T03:59:07.700Z,37.23
2018-01-27T04:01:34.948Z,38.67
2018-01-27T04:04:01.365Z,40.60
2018-01-27T04:06:27.509Z,42.27
2018-01-27T04:08:53.742Z,41.87
2018-01-27T04:11:19.930Z,40.90
2018-01-27T04:13:46.081Z,37.40
2018-01-27T04:16:12.236Z,36.20
2018-01-27T04:18:38.484Z,36.20
2018-01-27T04:21:04.674Z,37.93
2018-01-27T04:23:30.858Z,36.10
2018-01-27T04:25:57.101Z,36.40
2018-01-27T04:28:24.273Z,33.50
2018-01-27T04:30:50.643Z,35.20
2018-01-27T04:33:16.803Z,38.73
2018-01-27T04:35:43.006Z,39.03
2018-01-27T04:38:09.321Z,39.60
2018-01-27T04:40:35.550Z,41.70
2018-01-27T04:43:01.709Z,42.17
2018-01-27T04:45:27.898Z,44.23
2018-01-27T04:47:54.175Z,41.73
2018-01-27T04:50:20.400Z,44.47
2018-01-27T04:52:46.573Z,43.00
2018-01-27T04:55:12.759Z,48.13
2018-01-27T04:57:38.925Z,47.63
2018-01-27T05:00:05.179Z,44.97
2018-01-27T05:02:31.357Z,46.40
2018-01-27T05:04:57.606Z,48.63
2018-01-27T05:07:23.860Z,56.20
2018-01-27T05:09:50.113Z,47.73
2018-01-27T05:12:16.312Z,51.57
2018-01-27T05:14:42.448Z,48.43
2018-01-27T05:17:08.724Z,45.47
2018-01-27T05:19:34.945Z,39.37
2018-01-27T05:22:01.099Z,46.40
2018-01-27T05:24:27.247Z,47.03
2018-01-27T05:26:53.466Z,45.37
2018-01-27T05:29:19.697Z,41.33
2018-01-27T05:31:45.857Z,42.70
2018-01-27T05:34:12.149Z,41.60
2018-01-27T05:36:38.297Z,45.40
2018-01-27T05:39:04.512Z,45.43
2018-01-27T05:41:30.676Z,44.43
2018-01-27T05:43:56.843Z,43.23
2018-01-27T05:46:23.056Z,41.23
2018-01-27T05:48:49.220Z,44.47
2018-01-27T05:51:15.444Z,45.03
2018-01-27T05:53:41.605Z,46.00
2018-01-27T05:56:07.764Z,48.23
2018-01-27T05:58:34.002Z,47.97
2018-01-27T06:01:00.212Z,47.40
2018-01-27T06:03:26.356Z,46.67
2018-01-27T06:05:52.512Z,42.57
2018-01-27T06:08:18.750Z,45.33
2018-01-27T06:10:45.054Z,48.70
2018-01-27T06:13:11.211Z,45.67
2018-01-27T06:15:37.403Z,53.53
2018-01-27T06:18:03.677Z,49.10
2018-01-27T06:20:42.717Z,45.47
2018-01-27T06:23:09.323Z,46.60
2018-01-27T06:25:35.498Z,49.00
2018-01-27T06:28:01.691Z,42.87
2018-01-27T06:30:28.687Z,48.03
2018-01-27T06:32:54.853Z,46.10
2018-01-27T06:35:21.035Z,49.57
2018-01-27T06:37:47.245Z,45.07
2018-01-27T06:40:13.482Z,42.97
2018-01-27T06:42:39.656Z,43.07
2018-01-27T06:45:05.863Z,43.17
2018-01-27T06:47:32.105Z,41.47
2018-01-27T06:49:58.318Z,46.53
2018-01-27T06:52:24.481Z,44.23
2018-01-27T06:54:50.698Z,47.83
2018-01-27T06:57:16.969Z,47.70
2018-01-27T06:59:43.238Z,46.30
2018-01-27T07:02:09.420Z,45.73
2018-01-27T07:04:35.574Z,47.03
2018-01-27T07:07:01.796Z,48.60
2018-01-27T07:09:28.928Z,43.50
2018-01-27T07:11:55.090Z,53.50
2018-01-27T07:14:21.336Z,44.63
2018-01-27T07:16:47.529Z,51.13
2018-01-27T07:19:13.716Z,44.30
2018-01-27T07:21:39.904Z,48.47
2018-01-27T07:24:06.104Z,47.57
2018-01-27T07:26:32.276Z,48.33
2018-01-27T07:29:00.404Z,48.30
2018-01-27T07:31:26.650Z,49.57
2018-01-27T07:33:52.827Z,55.90
2018-01-27T07:36:18.971Z,50.50
2018-01-27T07:38:45.181Z,47.73
2018-01-27T07:41:11.454Z,47.20
2018-01-27T07:43:37.637Z,50.13
2018-01-27T07:46:03.852Z,48.80
2018-01-27T07:48:30.834Z,46.13
2018-01-27T07:50:57.045Z,45.80
2018-01-27T07:53:23.223Z,49.80
2018-01-27T07:55:49.422Z,44.97
2018-01-27T07:58:15.565Z,46.23
2018-01-27T08:00:41.962Z,45.27
2018-01-27T08:03:08.179Z,45.03
2018-01-27T08:05:35.275Z,47.90
2018-01-27T08:08:01.519Z,44.80
2018-01-27T08:10:27.769Z,46.83
2018-01-27T08:12:54.024Z,47.40
2018-01-27T08:15:23.271Z,46.13
2018-01-27T08:17:49.459Z,50.70
2018-01-27T08:20:15.663Z,43.67
2018-01-27T08:22:41.841Z,47.23
2018-01-27T08:25:08.025Z,45.87
2018-01-27T08:27:34.302Z,46.43
2018-01-27T08:30:00.558Z,46.57
2018-01-27T08:32:26.715Z,45.37
2018-01-27T08:34:52.907Z,44.57
2018-01-27T08:37:19.136Z,45.63
2018-01-27T08:39:45.443Z,48.77
2018-01-27T08:42:11.605Z,46.60
2018-01-27T08:44:38.222Z,44.73
2018-01-27T08:47:04.417Z,48.47
2018-01-27T08:49:30.649Z,43.93
2018-01-27T08:51:56.947Z,42.93
2018-01-27T08:54:23.883Z,43.50
2018-01-27T08:56:50.056Z,42.77
2018-01-27T08:59:16.297Z,39.10
2018-01-27T09:01:42.659Z,40.23
2018-01-27T09:04:08.904Z,38.40
2018-01-27T09:06:35.681Z,37.97
2018-01-27T09:09:01.968Z,39.67
2018-01-27T09:11:28.141Z,36.60
2018-01-27T09:13:54.335Z,37.70
2018-01-27T09:16:20.560Z,37.13
2018-01-27T09:18:46.753Z,40.63
2018-01-27T09:21:13.026Z,35.87
2018-01-27T09:23:39.191Z,42.27
2018-01-27T09:26:05.355Z,40.30
2018-01-27T09:28:31.543Z,40.53
2018-01-27T09:30:57.771Z,39.87
2018-01-27T09:33:24.011Z,39.57
2018-01-27T09:35:50.313Z,42.53
2018-01-27T09:38:16.604Z,42.33
2018-01-27T09:40:42.853Z,45.57
2018-01-27T09:43:09.002Z,40.20
2018-01-27T09:45:35.179Z,44.63
2018-01-27T09:48:01.414Z,41.87
2018-01-27T09:50:27.726Z,41.00
2018-01-27T09:52:53.894Z,39.30
2018-01-27T09:55:20.067Z,37.63
2018-01-27T09:57:46.255Z,39.20
2018-01-27T10:00:12.495Z,39.80
2018-01-27T10:02:38.695Z,37.77
2018-01-27T10:05:04.841Z,40.10
2018-01-27T10:07:31.881Z,37.70
2018-01-27T10:09:58.055Z,40.43
2018-01-27T10:12:26.532Z,38.50
2018-01-27T10:14:52.692Z,40.40
2018-01-27T10:17:18.919Z,41.10
2018-01-27T10:19:45.085Z,41.97
2018-01-27T10:22:11.299Z,41.17
2018-01-27T10:24:37.508Z,39.77
2018-01-27T10:27:03.792Z,38.37
2018-01-27T10:29:30.003Z,41.40
2018-01-27T10:31:56.239Z,34.00
2018-01-27T10:34:22.395Z,36.60
2018-01-27T10:36:48.753Z,40.57
2018-01-27T10:39:14.943Z,38.77
2018-01-27T10:41:41.184Z,40.33
2018-01-27T10:44:07.373Z,34.80
2018-01-27T10:46:33.671Z,33.63
2018-01-27T10:48:59.856Z,37.37
2018-01-27T10:51:26.075Z,37.10
2018-01-27T10:53:52.266Z,36.40
2018-01-27T10:56:18.450Z,34.27
2018-01-27T10:58:44.680Z,31.03
2018-01-27T11:01:10.924Z,34.90
2018-01-27T11:03:37.085Z,30.87
2018-01-27T11:06:03.365Z,32.40
2018-01-27T11:08:29.989Z,29.03
2018-01-27T11:10:56.234Z,30.43
2018-01-27T11:13:22.420Z,29.67
2018-01-27T11:15:48.602Z,34.20
2018-01-27T11:18:14.783Z,31.37
2018-01-27T11:20:41.047Z,31.97
2018-01-27T11:23:07.220Z,30.87
2018-01-27T11:25:33.928Z,33.43
2018-01-27T11:28:00.176Z,34.47
2018-01-27T11:30:26.385Z,33.60
2018-01-27T11:32:52.640Z,35.77
2018-01-27T11:35:18.799Z,32.57
2018-01-27T11:37:45.046Z,34.57
2018-01-27T11:40:11.266Z,32.83
2018-01-27T11:42:37.535Z,32.57
2018-01-27T11:45:03.793Z,30.90
2018-01-27T11:47:29.945Z,32.77
2018-01-27T11:49:56.260Z,33.33
2018-01-27T11:52:22.548Z,34.43
2018-01-27T11:54:48.729Z,30.67
2018-01-27T11:57:14.924Z,38.10
2018-01-27T11:59:41.172Z,35.10
2018-01-27T12:02:07.462Z,34.40
2018-01-27T12:04:33.652Z,32.70
2018-01-27T12:06:59.901Z,32.93
2018-01-27T12:09:26.408Z,35.30
2018-01-27T12:11:52.658Z,31.00
2018-01-27T12:14:18.801Z,35.27
2018-01-27T12:16:45.224Z,34.03
2018-01-27T12:19:11.554Z,38.93
2018-01-27T12:21:37.725Z,36.00
2018-01-27T12:24:04.534Z,32.03
2018-01-27T12:26:30.863Z,38.80
2018-01-27T12:28:56.966Z,36.00
2018-01-27T12:31:23.134Z,37.30
2018-01-27T12:33:49.304Z,32.07
2018-01-27T12:36:15.430Z,30.30
2018-01-27T12:38:41.588Z,31.70
2018-01-27T12:41:07.756Z,28.33
2018-01-27T12:43:34.686Z,33.00
2018-01-27T12:46:01.482Z,30.40
2018-01-27T12:48:27.590Z,32.77
2018-01-27T12:50:53.788Z,28.93
2018-01-27T12:53:19.924Z,26.43
2018-01-27T12:55:46.021Z,28.23
2018-01-27T12:58:12.126Z,22.53
2018-01-27T13:00:38.242Z,23.40
2018-01-27T13:03:04.429Z,23.30
2018-01-27T13:05:30.549Z,24.70
2018-01-27T13:07:56.690Z,29.30
2018-01-27T13:10:22.813Z,24.43
2018-01-27T13:12:49.109Z,22.83
2018-01-27T13:15:15.245Z,23.93
2018-01-27T13:17:41.421Z,22.23
2018-01-27T13:20:07.642Z,22.83
2018-01-27T13:22:33.888Z,24.27
2018-01-27T13:24:59.965Z,22.23
2018-01-27T13:27:26.104Z,24.33
2018-01-27T13:29:52.291Z,21.83
2018-01-27T13:32:18.538Z,22.83
2018-01-27T13:34:44.708Z,21.47
2018-01-27T13:37:11.970Z,19.57
2018-01-27T13:39:38.143Z,21.83
2018-01-27T13:42:04.350Z,20.33
2018-01-27T13:44:30.598Z,24.17
2018-01-27T13:46:56.830Z,23.43
2018-01-27T13:49:23.101Z,20.87
2018-01-27T13:51:49.300Z,22.70
2018-01-27T13:54:15.505Z,20.57
2018-01-27T13:56:41.695Z,21.27
2018-01-27T13:59:07.834Z,20.90
2018-01-27T14:01:34.077Z,20.03
2018-01-27T14:04:00.209Z,22.53
2018-01-27T14:06:26.333Z,21.03
2018-01-27T14:08:52.503Z,22.17
2018-01-27T14:11:18.691Z,18.13
2018-01-27T14:13:44.985Z,21.07
2018-01-27T14:16:11.423Z,20.73
2018-01-27T14:18:37.716Z,20.20
2018-01-27T14:21:04.032Z,22.27
2018-01-27T14:23:30.426Z,23.77
2018-01-27T14:25:56.584Z,23.40
2018-01-27T14:28:22.708Z,22.60
2018-01-27T14:30:48.871Z,20.57
2018-01-27T14:33:15.028Z,24.00
2018-01-27T14:35:42.804Z,23.63
2018-01-27T14:38:09.136Z,21.83
2018-01-27T14:40:35.357Z,21.77
2018-01-27T14:43:01.645Z,25.80
2018-01-27T14:45:29.323Z,23.50
2018-01-27T14:47:55.696Z,22.10
2018-01-27T14:50:21.803Z,25.93
2018-01-27T14:52:47.972Z,20.60
2018-01-27T14:55:14.108Z,26.30
2018-01-27T14:57:40.321Z,21.40
2018-01-27T15:00:06.506Z,22.70
2018-01-27T15:02:32.669Z,26.27
2018-01-27T15:04:58.761Z,24.77
2018-01-27T15:07:25.002Z,26.33
2018-01-27T15:09:51.158Z,24.17
2018-01-27T15:12:17.313Z,24.23
2018-01-27T15:14:43.481Z,20.20
2018-01-27T15:17:09.614Z,20.93
2018-01-27T15:19:35.733Z,22.07
2018-01-27T15:22:01.920Z,23.30
2018-01-27T15:24:28.049Z,22.80
2018-01-27T15:26:54.183Z,19.20
2018-01-27T15:29:20.333Z,18.77
2018-01-27T15:31:46.521Z,21.23
2018-01-27T15:34:12.709Z,20.43
2018-01-27T15:36:38.880Z,21.77
2018-01-27T15:39:05.033Z,19.40
2018-01-27T15:41:31.176Z,18.63
2018-01-27T15:43:57.386Z,21.80
2018-01-27T15:46:23.579Z,17.33
2018-01-27T15:48:49.675Z,18.67
2018-01-27T15:51:15.792Z,19.60
2018-01-27T15:53:41.954Z,18.90
2018-01-27T15:56:08.076Z,21.43
2018-01-27T15:58:34.245Z,21.93
2018-01-27T16:01:00.394Z,23.27
2018-01-27T16:03:26.588Z,18.87
2018-01-27T16:05:52.705Z,22.37
2018-01-27T16:08:18.866Z,20.40
2018-01-27T16:10:45.020Z,27.20
2018-01-27T16:13:11.179Z,20.87
2018-01-27T16:15:37.378Z,23.67
2018-01-27T16:18:03.526Z,21.50
2018-01-27T16:20:29.666Z,20.80
2018-01-27T16:22:55.866Z,22.90
2018-01-27T16:25:22.004Z,23.13
2018-01-27T16:27:48.140Z,19.10
2018-01-27T16:30:14.298Z,23.27
2018-01-27T16:32:40.490Z,21.43
2018-01-27T16:35:06.616Z,19.63
2018-01-27T16:37:35.248Z,21.63
2018-01-27T16:40:01.610Z,21.17
2018-01-27T16:42:28.103Z,19.93
2018-01-27T16:44:54.315Z,17.23
2018-01-27T16:47:20.816Z,22.13
2018-01-27T16:49:48.761Z,20.73
2018-01-27T16:52:17.069Z,18.57
2018-01-27T16:54:44.498Z,18.97
2018-01-27T16:57:13.052Z,19.30
2018-01-27T16:59:39.774Z,23.60
2018-01-27T17:02:07.263Z,20.03
2018-01-27T17:04:33.535Z,20.90
2018-01-27T17:06:59.996Z,19.73
2018-01-27T17:09:27.031Z,21.17
2018-01-27T17:11:53.905Z,21.33
2018-01-27T17:14:20.957Z,20.63
2018-01-27T17:16:48.341Z,22.27
2018-01-27T17:19:14.554Z,18.60
2018-01-27T17:21:40.759Z,21.90
2018-01-27T17:24:07.010Z,20.33
2018-01-27T17:26:33.954Z,21.13
2018-01-27T17:29:02.096Z,17.83
2018-01-27T17:31:31.372Z,17.60
2018-01-27T17:33:57.622Z,21.03
2018-01-27T17:36:24.744Z,19.33
2018-01-27T17:38:52.241Z,21.63
2018-01-27T17:41:18.536Z,23.40
2018-01-27T17:43:44.758Z,21.50
2018-01-27T17:46:11.225Z,20.33
2018-01-27T17:48:37.519Z,20.40
2018-01-27T17:51:03.808Z,20.30
2018-01-27T17:53:30.086Z,20.00
2018-01-27T17:55:56.360Z,18.60
2018-01-27T17:58:22.650Z,17.83
2018-01-27T18:00:49.165Z,20.70
2018-01-27T18:03:15.504Z,22.10
2018-01-27T18:05:41.806Z,20.23
2018-01-27T18:08:08.133Z,19.07
2018-01-27T18:10:34.454Z,16.90
2018-01-27T18:13:00.660Z,20.23
2018-01-27T18:15:26.826Z,18.10
2018-01-27T18:17:53.109Z,20.03
2018-01-27T18:20:19.338Z,18.60
2018-01-27T18:22:45.565Z,23.60
2018-01-27T18:25:11.793Z,21.10
2018-01-27T18:27:37.999Z,21.23
2018-01-27T18:30:04.305Z,24.53
2018-01-27T18:32:30.473Z,20.33
2018-01-27T18:34:56.695Z,24.17
2018-01-27T18:37:22.983Z,24.27
2018-01-27T18:39:49.200Z,24.53
2018-01-27T18:42:15.389Z,24.47
2018-01-27T18:44:41.618Z,23.43
2018-01-27T18:47:07.834Z,29.13
2018-01-27T18:49:34.020Z,25.70
2018-01-27T18:52:00.331Z,26.90
2018-01-27T18:54:26.548Z,24.73
2018-01-27T18:56:52.694Z,29.87
2018-01-27T18:59:18.886Z,28.27
2018-01-27T19:01:45.123Z,28.27
2018-01-27T19:04:11.337Z,31.70
2018-01-27T19:06:37.618Z,26.60
2018-01-27T19:09:03.923Z,28.93
2018-01-27T19:11:30.084Z,26.13
2018-01-27T19:13:56.363Z,27.83
2018-01-27T19:16:22.577Z,28.77
2018-01-27T19:18:48.756Z,27.50
2018-01-27T19:21:15.006Z,28.97
2018-01-27T19:23:42.178Z,29.90
2018-01-27T19:26:08.402Z,28.67
2018-01-27T19:28:34.656Z,27.87
2018-01-27T19:31:00.862Z,27.47
2018-01-27T19:33:27.180Z,27.27
2018-01-27T19:35:53.411Z,27.63
2018-01-27T19:38:19.662Z,28.10
2018-01-27T19:40:45.927Z,24.67
2018-01-27T19:43:12.296Z,25.67
2018-01-27T19:45:38.544Z,22.70
2018-01-27T19:48:04.793Z,24.67
2018-01-27T19:50:31.031Z,23.53
2018-01-27T19:52:57.207Z,26.10
2018-01-27T19:55:23.487Z,26.30
2018-01-27T19:57:49.698Z,22.43
2018-01-27T20:00:15.868Z,29.63
2018-01-27T20:02:42.020Z,22.57
2018-01-27T20:05:08.285Z,23.97
2018-01-27T20:07:34.558Z,22.50
2018-01-27T20:10:00.752Z,21.57
2018-01-27T20:12:26.975Z,21.83
2018-01-27T20:14:53.216Z,24.10
2018-01-27T20:17:19.573Z,22.43
2018-01-27T20:19:45.867Z,20.93
2018-01-27T20:22:12.077Z,20.20
2018-01-27T20:24:38.366Z,20.60
2018-01-27T20:27:04.528Z,22.20
2018-01-27T20:29:30.724Z,22.03
2018-01-27T20:31:56.936Z,20.70
2018-01-27T20:34:23.170Z,21.37
2018-01-27T20:36:49.346Z,22.23
2018-01-27T20:39:16.294Z,18.97
2018-01-27T20:41:42.514Z,18.30
2018-01-27T20:44:08.801Z,17.87
2018-01-27T20:46:35.006Z,20.03
2018-01-27T20:49:01.185Z,20.80
2018-01-27T20:51:27.500Z,17.40
2018-01-27T20:53:53.792Z,16.87
2018-01-27T20:56:20.061Z,21.27
2018-01-27T20:58:47.100Z,17.43
2018-01-27T21:01:13.354Z,16.20
2018-01-27T21:03:39.582Z,16.47
2018-01-27T21:06:06.886Z,13.80
2018-01-27T21:08:34.191Z,16.53
2018-01-27T21:11:00.432Z,16.73
2018-01-27T21:13:26.640Z,16.20
2018-01-27T21:15:53.844Z,15.77
2018-01-27T21:18:20.021Z,18.50
2018-01-27T21:20:46.259Z,23.83
2018-01-27T21:23:12.573Z,17.80
2018-01-27T21:25:38.899Z,17.47
2018-01-27T21:28:05.165Z,17.37
2018-01-27T21:30:31.430Z,18.23
2018-01-27T21:32:57.815Z,16.87
2018-01-27T21:35:24.040Z,19.20
2018-01-27T21:37:50.346Z,18.60
2018-01-27T21:40:16.544Z,20.17
2018-01-27T21:42:42.785Z,19.93
2018-01-27T21:45:09.091Z,18.57
2018-01-27T21:47:35.287Z,20.37
2018-01-27T21:50:01.448Z,21.80
2018-01-27T21:52:27.660Z,19.30
2018-01-27T21:54:53.920Z,20.17
2018-01-27T21:57:20.097Z,17.80
2018-01-27T21:59:46.339Z,18.63
2018-01-27T22:02:12.543Z,18.20
2018-01-27T22:04:38.775Z,19.37
2018-01-27T22:07:05.014Z,18.43
2018-01-27T22:09:31.207Z,19.33
2018-01-27T22:11:57.488Z,21.00
2018-01-27T22:14:23.710Z,19.27
2018-01-27T22:16:49.874Z,20.60
2018-01-27T22:19:16.030Z,18.20
2018-01-27T22:21:42.269Z,19.13
2018-01-27T22:24:08.506Z,19.47
2018-01-27T22:26:34.714Z,22.10
2018-01-27T22:29:00.936Z,22.97
2018-01-27T22:31:27.107Z,23.43
2018-01-27T22:33:53.332Z,23.37
2018-01-27T22:36:19.523Z,22.03
2018-01-27T22:38:45.774Z,22.87
2018-01-27T22:41:11.938Z,27.70
2018-01-27T22:43:38.163Z,24.53
2018-01-27T22:46:04.353Z,24.30
2018-01-27T22:48:30.590Z,22.93
2018-01-27T22:50:57.523Z,29.03
2018-01-27T22:53:23.748Z,25.53
2018-01-27T22:55:49.996Z,20.77
2018-01-27T22:58:16.264Z,23.53
2018-01-27T23:00:48.391Z,25.13
2018-01-27T23:03:15.644Z,26.03
2018-01-27T23:05:41.786Z,27.33
2018-01-27T23:08:08.067Z,27.87
2018-01-27T23:10:34.275Z,25.13
2018-01-27T23:13:00.529Z,28.57
2018-01-27T23:15:26.845Z,25.07
2018-01-27T23:17:53.091Z,23.47
2018-01-27T23:20:19.283Z,23.57
2018-01-27T23:22:45.479Z,28.27
2018-01-27T23:25:11.693Z,26.97
2018-01-27T23:27:37.932Z,25.87
2018-01-27T23:30:04.270Z,28.97
2018-01-27T23:32:30.481Z,24.63
2018-01-27T23:34:56.651Z,24.67
2018-01-27T23:37:22.882Z,25.73
2018-01-27T23:39:49.109Z,24.70
2018-01-27T23:42:15.344Z,28.93
2018-01-27T23:44:41.563Z,29.63
2018-01-27T23:47:08.707Z,28.60
2018-01-27T23:49:34.870Z,28.90
2018-01-27T23:52:01.047Z,26.33
2018-01-27T23:54:27.225Z,28.63
2018-01-27T23:56:53.579Z,28.53
2018-01-27T23:59:19.747Z,24.57
